Time;durP1;ratioP1;P1;durP2;ratioP2;P2;SDS_P1;SDS_P2;PMS_P1;PMS_P2;Temp;Humidity;BMP_temperature;BMP_pressure;BME280_temperature;BME280_humidity;BME280_pressure;Samples;Min_cycle;Max_cycle;Signal;HPM_P1;HPM_P2
2023/11/19 00:00:26;;;;;;;77.50;29.00;;;11.50;99.90;;;;;;4993920;28;20410;-76
2023/11/19 00:02:52;;;;;;;71.50;28.02;;;11.50;99.90;;;;;;4976884;28;20046;-76
2023/11/19 00:05:18;;;;;;;66.88;26.60;;;11.50;99.90;;;;;;4992743;28;20050;-76
2023/11/19 00:07:44;;;;;;;67.93;25.05;;;11.50;99.90;;;;;;4993797;28;20124;-76
2023/11/19 00:10:14;;;;;;;66.10;27.70;;;11.60;99.90;;;;;;4993021;28;20048;-76
2023/11/19 00:12:41;;;;;;;71.97;26.35;;;11.60;99.90;;;;;;4994768;28;20129;-76
2023/11/19 00:15:11;;;;;;;73.32;26.27;;;11.60;99.90;;;;;;5009844;28;20061;-78
2023/11/19 00:17:38;;;;;;;68.82;26.17;;;11.60;99.90;;;;;;4989351;28;20044;-76
2023/11/19 00:20:05;;;;;;;62.65;23.13;;;11.70;99.90;;;;;;4991975;28;20449;-76
2023/11/19 00:22:32;;;;;;;69.97;23.65;;;11.70;99.90;;;;;;5003415;23;20425;-71
2023/11/19 00:24:59;;;;;;;68.50;22.80;;;11.70;99.90;;;;;;5008617;28;20120;-72
2023/11/19 00:27:25;;;;;;;52.63;19.25;;;11.70;99.90;;;;;;5017997;28;20099;-71
2023/11/19 00:29:50;;;;;;;47.08;17.60;;;11.80;99.90;;;;;;5037797;28;20039;-71
2023/11/19 00:32:22;;;;;;;46.95;17.75;;;11.80;99.90;;;;;;5010434;28;20041;-71
2023/11/19 00:34:48;;;;;;;48.17;16.55;;;11.90;99.90;;;;;;5011538;28;20041;-71
2023/11/19 00:37:17;;;;;;;50.90;15.43;;;11.90;99.90;;;;;;4994046;28;20096;-71
2023/11/19 00:39:43;;;;;;;49.67;15.43;;;11.90;99.90;;;;;;4994794;28;20481;-71
2023/11/19 00:42:13;;;;;;;51.38;15.10;;;12.00;99.90;;;;;;5012154;28;20371;-72
2023/11/19 00:44:38;;;;;;;47.55;13.63;;;12.00;99.90;;;;;;5011888;28;20525;-71
2023/11/19 00:47:05;;;;;;;36.47;12.90;;;12.00;99.90;;;;;;4996493;28;20037;-71
2023/11/19 00:49:33;;;;;;;42.45;13.45;;;12.10;99.90;;;;;;4979847;28;20029;-71
2023/11/19 00:51:59;;;;;;;38.83;11.93;;;12.10;99.90;;;;;;5012533;28;20136;-71
2023/11/19 00:54:27;;;;;;;36.05;11.80;;;12.10;99.90;;;;;;5002718;28;20401;-72
2023/11/19 00:56:53;;;;;;;37.42;10.90;;;12.10;99.90;;;;;;5013880;28;20565;-71
2023/11/19 00:59:19;;;;;;;43.83;11.23;;;12.10;99.90;;;;;;4978468;28;20553;-71
2023/11/19 01:01:45;;;;;;;46.35;10.80;;;12.10;99.90;;;;;;4994133;28;20513;-71
2023/11/19 01:04:10;;;;;;;35.33;9.13;;;12.10;99.90;;;;;;4995284;28;20077;-71
2023/11/19 01:06:36;;;;;;;32.63;9.38;;;12.10;99.90;;;;;;4979644;28;20046;-70
2023/11/19 01:09:02;;;;;;;41.00;10.05;;;12.10;99.90;;;;;;4994780;28;20091;-71
2023/11/19 01:11:28;;;;;;;34.40;9.95;;;12.10;99.90;;;;;;4993948;28;20048;-71
2023/11/19 01:13:54;;;;;;;38.83;8.05;;;12.10;99.90;;;;;;5008776;28;20113;-71
2023/11/19 01:16:20;;;;;;;33.80;8.55;;;12.20;99.90;;;;;;5012215;28;20061;-71
2023/11/19 01:18:49;;;;;;;34.33;9.30;;;12.20;99.90;;;;;;5011273;28;20127;-71
2023/11/19 01:21:15;;;;;;;40.03;8.25;;;12.20;99.90;;;;;;5011894;28;20514;-72
2023/11/19 01:23:45;;;;;;;38.97;9.45;;;12.10;99.90;;;;;;5018105;28;20052;-71
2023/11/19 01:26:12;;;;;;;35.67;8.52;;;12.20;99.90;;;;;;4978136;28;20162;-72
2023/11/19 01:28:39;;;;;;;35.28;8.68;;;12.30;99.90;;;;;;4977251;28;20045;-71
2023/11/19 01:31:12;;;;;;;39.47;8.10;;;12.40;99.90;;;;;;5012935;28;20038;-72
2023/11/19 01:33:42;;;;;;;32.20;7.85;;;12.20;99.90;;;;;;4994832;28;20049;-71
2023/11/19 01:36:09;;;;;;;35.92;7.70;;;12.20;99.90;;;;;;4977974;28;20240;-71
2023/11/19 01:38:36;;;;;;;29.08;8.25;;;12.20;99.90;;;;;;4989127;28;20124;-71
2023/11/19 01:41:03;;;;;;;29.33;7.65;;;12.20;99.90;;;;;;4977845;28;20041;-71
2023/11/19 01:43:41;;;;;;;35.95;7.55;;;12.20;99.90;;;;;;4993509;28;20533;-71
2023/11/19 01:46:09;;;;;;;27.52;6.82;;;12.20;99.90;;;;;;4997427;28;20038;-71
2023/11/19 01:48:40;;;;;;;31.67;7.20;;;12.20;99.90;;;;;;5011257;28;20046;-71
2023/11/19 01:51:06;;;;;;;34.67;7.80;;;12.20;99.90;;;;;;5012919;28;20434;-72
2023/11/19 01:53:33;;;;;;;32.58;6.30;;;12.20;99.90;;;;;;4993557;28;20466;-71
2023/11/19 01:56:10;;;;;;;36.63;7.00;;;12.20;99.90;;;;;;4977227;28;20038;-71
2023/11/19 01:58:41;;;;;;;30.08;6.88;;;12.20;99.90;;;;;;5012870;28;20104;-71
2023/11/19 02:01:07;;;;;;;36.28;7.15;;;12.20;99.90;;;;;;5011493;28;20070;-71
2023/11/19 02:03:33;;;;;;;29.77;6.75;;;12.20;99.90;;;;;;4994780;28;20080;-71
2023/11/19 02:06:00;;;;;;;32.97;5.90;;;12.20;99.90;;;;;;4973504;28;20034;-71
2023/11/19 02:08:26;;;;;;;34.35;5.93;;;12.20;99.90;;;;;;4990541;28;20050;-71
2023/11/19 02:10:52;;;;;;;31.85;6.90;;;12.20;99.90;;;;;;5010462;28;20093;-71
2023/11/19 02:13:18;;;;;;;32.45;6.13;;;12.20;99.90;;;;;;4995067;28;20085;-71
2023/11/19 02:15:44;;;;;;;37.05;6.22;;;12.20;99.90;;;;;;4993661;28;20042;-74
2023/11/19 02:18:24;;;;;;;35.00;6.13;;;12.20;99.90;;;;;;4992690;28;20540;-72
2023/11/19 02:20:52;;;;;;;37.72;7.50;;;12.20;99.90;;;;;;4992663;28;20085;-71
2023/11/19 02:23:20;;;;;;;32.95;5.47;;;12.20;99.90;;;;;;5011278;28;20073;-71
2023/11/19 02:25:59;;;;;;;28.75;5.30;;;12.20;99.90;;;;;;4981637;28;20045;-71
2023/11/19 02:28:25;;;;;;;37.47;5.95;;;12.20;99.90;;;;;;5012369;28;20038;-71
2023/11/19 02:30:50;;;;;;;37.05;6.43;;;12.20;99.90;;;;;;5015427;28;20096;-72
2023/11/19 02:33:16;;;;;;;30.25;5.55;;;12.20;99.90;;;;;;4980584;28;20513;-72
2023/11/19 02:35:44;;;;;;;33.00;5.60;;;12.20;99.90;;;;;;5007514;28;20049;-72
2023/11/19 02:38:10;;;;;;;34.58;5.15;;;12.20;99.90;;;;;;5012551;28;20375;-71
2023/11/19 02:40:36;;;;;;;35.80;5.90;;;12.20;99.90;;;;;;5012965;28;20058;-71
2023/11/19 02:43:04;;;;;;;40.50;5.47;;;12.20;99.90;;;;;;4997958;28;20046;-71
2023/11/19 02:45:32;;;;;;;33.75;5.35;;;12.20;99.90;;;;;;4997169;28;20046;-72
2023/11/19 02:47:57;;;;;;;32.60;4.97;;;12.20;99.90;;;;;;4995482;28;20037;-72
2023/11/19 02:50:26;;;;;;;33.30;5.38;;;12.20;99.90;;;;;;4996646;28;20518;-72
2023/11/19 02:52:53;;;;;;;38.03;5.60;;;12.10;99.90;;;;;;5004544;28;20041;-72
2023/11/19 02:55:23;;;;;;;31.02;6.05;;;12.10;99.90;;;;;;5015459;28;20046;-71
2023/11/19 02:57:50;;;;;;;34.40;5.28;;;12.10;99.90;;;;;;5005565;28;20048;-71
2023/11/19 03:00:23;;;;;;;33.80;5.70;;;12.10;99.90;;;;;;4995730;28;20550;-72
2023/11/19 03:02:58;;;;;;;32.83;5.63;;;12.10;99.90;;;;;;4999609;28;20081;-72
2023/11/19 03:05:24;;;;;;;36.85;6.53;;;12.10;99.90;;;;;;5016178;28;20072;-75
2023/11/19 03:07:50;;;;;;;39.85;5.72;;;12.10;99.90;;;;;;5016417;28;20034;-73
2023/11/19 03:10:16;;;;;;;34.60;6.65;;;12.10;99.90;;;;;;5001918;28;20439;-72
2023/11/19 03:12:42;;;;;;;34.50;6.10;;;12.10;99.90;;;;;;5022191;28;20576;-72
2023/11/19 03:15:09;;;;;;;48.70;6.40;;;12.00;99.90;;;;;;4977967;28;20073;-72
2023/11/19 03:17:39;;;;;;;37.40;6.30;;;12.00;99.90;;;;;;4991653;28;20033;-72
2023/11/19 03:20:11;;;;;;;34.38;5.50;;;12.00;99.90;;;;;;5003284;28;20091;-72
2023/11/19 03:22:41;;;;;;;38.47;7.03;;;12.00;99.90;;;;;;5015677;28;20034;-72
2023/11/19 03:25:10;;;;;;;40.03;6.40;;;12.00;99.90;;;;;;4997198;28;20360;-72
2023/11/19 03:27:42;;;;;;;47.17;7.10;;;12.10;99.90;;;;;;5022589;28;20038;-72
2023/11/19 03:30:10;;;;;;;43.88;6.40;;;12.10;99.90;;;;;;4980451;28;20052;-72
2023/11/19 03:32:42;;;;;;;48.17;7.45;;;12.10;99.90;;;;;;5012261;28;20145;-73
2023/11/19 03:35:08;;;;;;;38.03;6.47;;;12.10;99.90;;;;;;5014324;28;20121;-73
2023/11/19 03:37:34;;;;;;;30.80;6.32;;;12.10;99.90;;;;;;4980005;28;20329;-73
2023/11/19 03:40:07;;;;;;;36.60;6.47;;;12.10;99.90;;;;;;5014444;28;20494;-73
2023/11/19 03:42:34;;;;;;;36.00;5.70;;;12.20;99.90;;;;;;5015942;28;20033;-72
2023/11/19 03:45:00;;;;;;;36.55;7.18;;;12.10;99.90;;;;;;4963700;28;20104;-72
2023/11/19 03:47:25;;;;;;;34.25;5.65;;;12.10;99.90;;;;;;4979505;28;20034;-72
2023/11/19 03:49:51;;;;;;;44.20;6.45;;;12.20;99.90;;;;;;4995902;28;20120;-72
2023/11/19 03:52:18;;;;;;;36.38;7.00;;;12.20;99.90;;;;;;4981037;28;20045;-73
2023/11/19 03:54:45;;;;;;;39.58;6.57;;;12.10;99.90;;;;;;5011272;28;20038;-73
2023/11/19 03:57:15;;;;;;;39.65;6.88;;;12.10;99.90;;;;;;5005647;28;20045;-72
2023/11/19 03:59:41;;;;;;;36.45;5.30;;;12.20;99.90;;;;;;4994441;28;20037;-72
2023/11/19 04:02:06;;;;;;;38.75;6.65;;;12.10;99.90;;;;;;5006739;28;20042;-73
2023/11/19 04:04:32;;;;;;;32.22;5.78;;;12.10;99.90;;;;;;5012687;28;20038;-75
2023/11/19 04:07:00;;;;;;;49.90;6.80;;;12.10;99.90;;;;;;4995574;28;20038;-73
2023/11/19 04:09:26;;;;;;;38.30;6.95;;;12.20;99.90;;;;;;5020025;28;20490;-73
2023/11/19 04:11:52;;;;;;;37.08;6.03;;;12.10;99.90;;;;;;5007518;28;20430;-72
2023/11/19 04:14:18;;;;;;;33.67;7.25;;;12.10;99.90;;;;;;4995080;28;20076;-72
2023/11/19 04:16:47;;;;;;;40.85;6.13;;;12.10;99.90;;;;;;5012464;28;20086;-74
2023/11/19 04:19:15;;;;;;;40.30;6.18;;;12.00;99.90;;;;;;4996931;28;20046;-73
2023/11/19 04:21:44;;;;;;;40.42;6.50;;;12.00;99.90;;;;;;5012478;28;20037;-73
2023/11/19 04:24:14;;;;;;;43.13;7.10;;;12.00;99.90;;;;;;5012435;28;20050;-73
2023/11/19 04:26:44;;;;;;;41.00;6.82;;;12.00;99.90;;;;;;4994903;28;20052;-73
2023/11/19 04:29:16;;;;;;;40.90;7.03;;;11.90;99.90;;;;;;4994117;28;20069;-72
2023/11/19 04:31:44;;;;;;;37.58;6.30;;;11.90;99.90;;;;;;4993831;28;20042;-72
2023/11/19 04:34:09;;;;;;;45.60;6.80;;;11.90;99.90;;;;;;5011437;28;20574;-73
2023/11/19 04:36:35;;;;;;;41.88;6.63;;;11.80;99.90;;;;;;5005736;28;20121;-72
2023/11/19 04:39:12;;;;;;;36.50;5.88;;;11.80;99.90;;;;;;5012009;28;20045;-73
2023/11/19 04:41:47;;;;;;;41.20;6.75;;;11.80;99.90;;;;;;4994962;28;20042;-73
2023/11/19 04:44:12;;;;;;;39.80;6.70;;;11.80;99.90;;;;;;5014308;28;20077;-72
2023/11/19 04:46:38;;;;;;;34.78;5.55;;;11.80;99.90;;;;;;4994165;28;20089;-72
2023/11/19 04:49:10;;;;;;;44.92;6.38;;;11.80;99.90;;;;;;4978966;28;20046;-73
2023/11/19 04:51:43;;;;;;;40.80;6.50;;;11.80;99.90;;;;;;5014132;28;20069;-73
2023/11/19 04:54:09;;;;;;;45.47;6.57;;;11.80;99.90;;;;;;5011674;28;20553;-73
2023/11/19 04:56:37;;;;;;;47.55;7.13;;;11.70;99.90;;;;;;5010742;28;20033;-73
2023/11/19 04:59:06;;;;;;;38.83;7.20;;;11.70;99.90;;;;;;4982450;28;20395;-72
2023/11/19 05:01:35;;;;;;;41.53;7.53;;;11.70;99.90;;;;;;4994172;28;20049;-73
2023/11/19 05:04:07;;;;;;;41.95;7.05;;;11.70;99.90;;;;;;4993965;28;20088;-73
2023/11/19 05:06:32;;;;;;;52.25;7.32;;;11.80;99.90;;;;;;5012943;28;20087;-73
2023/11/19 05:09:07;;;;;;;39.90;6.28;;;11.80;99.90;;;;;;5010449;28;20033;-72
2023/11/19 05:11:36;;;;;;;43.78;6.82;;;11.70;99.90;;;;;;4978636;28;20483;-73
2023/11/19 05:14:05;;;;;;;42.58;7.07;;;11.70;99.90;;;;;;4993801;28;20096;-73
2023/11/19 05:16:31;;;;;;;46.80;6.60;;;11.80;99.90;;;;;;4993738;28;20042;-73
2023/11/19 05:18:56;;;;;;;39.72;6.75;;;11.80;99.90;;;;;;4993871;28;20034;-73
2023/11/19 05:21:23;;;;;;;30.70;6.07;;;11.70;99.90;;;;;;4977873;28;20037;-73
2023/11/19 05:23:48;;;;;;;47.90;7.93;;;11.80;99.90;;;;;;5012407;28;20048;-73
2023/11/19 05:26:24;;;;;;;39.70;6.68;;;11.80;99.90;;;;;;4992491;28;20511;-73
2023/11/19 05:28:50;;;;;;;42.60;7.07;;;11.80;99.90;;;;;;5013352;28;20046;-73
2023/11/19 05:31:16;;;;;;;45.20;6.78;;;11.80;99.90;;;;;;5013720;28;20081;-73
2023/11/19 05:33:42;;;;;;;45.92;6.60;;;11.80;99.90;;;;;;4990943;28;20049;-73
2023/11/19 05:36:08;;;;;;;41.55;7.28;;;11.80;99.90;;;;;;5011994;28;20091;-73
2023/11/19 05:38:37;;;;;;;42.47;6.28;;;11.80;99.90;;;;;;4994198;28;20125;-73
2023/11/19 05:41:03;;;;;;;44.45;7.68;;;11.80;99.90;;;;;;5011110;28;20049;-73
2023/11/19 05:43:28;;;;;;;41.42;6.18;;;11.80;99.90;;;;;;4993628;28;20049;-73
2023/11/19 05:45:54;;;;;;;44.72;7.45;;;11.80;99.90;;;;;;4998326;28;20095;-73
2023/11/19 05:48:19;;;;;;;37.35;7.10;;;11.80;99.90;;;;;;4988314;28;20512;-73
2023/11/19 05:50:50;;;;;;;49.20;7.70;;;11.80;99.90;;;;;;4993774;28;20037;-73
2023/11/19 05:53:16;;;;;;;42.25;8.00;;;11.80;99.90;;;;;;4993778;28;20050;-73
2023/11/19 05:55:55;;;;;;;43.00;7.47;;;11.90;99.90;;;;;;4994061;28;20042;-73
2023/11/19 05:58:28;;;;;;;37.97;6.47;;;11.70;99.90;;;;;;4994126;28;20144;-73
2023/11/19 06:00:57;;;;;;;45.55;7.15;;;11.70;99.90;;;;;;4993593;28;20308;-73
2023/11/19 06:03:23;;;;;;;41.58;7.50;;;11.70;99.90;;;;;;4993346;28;20046;-73
2023/11/19 06:05:49;;;;;;;44.13;6.72;;;11.70;99.90;;;;;;4993048;28;20092;-73
2023/11/19 06:08:16;;;;;;;45.72;7.05;;;11.70;99.90;;;;;;5011526;28;20560;-73
2023/11/19 06:10:42;;;;;;;34.90;6.95;;;11.60;99.90;;;;;;5009271;28;20037;-73
2023/11/19 06:13:09;;;;;;;44.28;7.18;;;11.60;99.90;;;;;;4998316;28;20410;-73
2023/11/19 06:15:36;;;;;;;43.40;7.03;;;11.60;99.90;;;;;;5013150;28;20044;-73
2023/11/19 06:18:03;;;;;;;37.88;6.10;;;11.60;99.90;;;;;;4993723;28;20123;-73
2023/11/19 06:20:33;;;;;;;47.63;8.23;;;11.50;99.90;;;;;;4977306;28;20184;-73
2023/11/19 06:22:59;;;;;;;35.15;6.53;;;11.50;99.90;;;;;;4995090;28;20430;-73
2023/11/19 06:25:24;;;;;;;48.38;6.97;;;11.50;99.90;;;;;;4979107;28;20046;-73
2023/11/19 06:27:51;;;;;;;43.42;7.38;;;11.40;99.90;;;;;;4996123;28;20533;-73
2023/11/19 06:30:16;;;;;;;40.95;7.03;;;10.90;99.90;;;;;;4996756;28;20088;-73
2023/11/19 06:32:42;;;;;;;43.70;7.30;;;11.40;99.90;;;;;;4988566;28;20070;-73
2023/11/19 06:35:09;;;;;;;44.75;7.55;;;11.40;99.90;;;;;;5007819;28;20099;-73
2023/11/19 06:37:39;;;;;;;49.10;8.27;;;11.40;99.90;;;;;;5012731;28;20034;-73
2023/11/19 06:40:06;;;;;;;42.28;7.05;;;11.40;99.90;;;;;;4993972;28;20042;-73
2023/11/19 06:42:31;;;;;;;47.75;6.47;;;11.40;99.90;;;;;;5003790;28;20049;-73
2023/11/19 06:45:00;;;;;;;43.58;6.85;;;11.40;99.90;;;;;;4995195;28;20395;-73
2023/11/19 06:47:27;;;;;;;39.67;7.18;;;11.40;99.90;;;;;;4973561;28;20062;-73
2023/11/19 06:49:56;;;;;;;47.70;7.38;;;11.50;99.90;;;;;;5010885;28;20045;-73
2023/11/19 06:52:22;;;;;;;46.00;7.43;;;11.50;99.90;;;;;;4990403;28;20089;-73
2023/11/19 06:54:51;;;;;;;46.03;7.07;;;11.40;99.90;;;;;;5015456;28;20085;-73
2023/11/19 06:57:17;;;;;;;40.85;6.35;;;11.40;99.90;;;;;;4977232;28;20088;-73
2023/11/19 06:59:43;;;;;;;35.00;6.68;;;11.40;99.90;;;;;;4975316;28;20042;-73
2023/11/19 07:02:09;;;;;;;42.53;7.43;;;11.40;99.90;;;;;;5010024;28;20099;-73
2023/11/19 07:04:42;;;;;;;44.38;7.00;;;11.40;99.90;;;;;;4977156;28;20057;-73
2023/11/19 07:07:08;;;;;;;46.85;6.97;;;11.40;99.90;;;;;;4978710;28;20052;-73
2023/11/19 07:09:34;;;;;;;47.85;6.80;;;11.40;99.90;;;;;;5011373;28;20042;-73
2023/11/19 07:12:01;;;;;;;36.85;6.63;;;11.40;99.90;;;;;;4989623;28;20042;-73
2023/11/19 07:14:27;;;;;;;44.17;6.25;;;11.50;99.90;;;;;;5014394;28;20042;-76
2023/11/19 07:16:53;;;;;;;39.78;6.50;;;11.50;99.90;;;;;;5014836;28;20629;-73
2023/11/19 07:19:19;;;;;;;37.65;6.68;;;11.50;99.90;;;;;;5008810;28;20100;-73
2023/11/19 07:21:47;;;;;;;39.72;6.55;;;11.40;99.90;;;;;;5014524;28;20129;-73
2023/11/19 07:24:13;;;;;;;44.55;6.85;;;11.40;99.90;;;;;;5019232;28;20095;-73
2023/11/19 07:26:48;;;;;;;33.42;6.47;;;11.40;99.90;;;;;;4995453;28;20130;-73
2023/11/19 07:29:16;;;;;;;42.15;6.55;;;11.40;99.90;;;;;;4996955;28;20049;-74
2023/11/19 07:31:44;;;;;;;39.35;6.05;;;11.40;99.90;;;;;;4990688;28;20140;-73
2023/11/19 07:34:10;;;;;;;38.35;6.43;;;11.40;99.90;;;;;;4996109;28;20523;-73
2023/11/19 07:36:36;;;;;;;36.85;6.07;;;11.30;99.90;;;;;;5011439;28;20048;-73
2023/11/19 07:39:04;;;;;;;45.38;6.35;;;11.30;99.90;;;;;;5013745;28;20546;-74
2023/11/19 07:41:30;;;;;;;38.90;6.75;;;11.30;99.90;;;;;;5012651;28;20524;-74
2023/11/19 07:43:56;;;;;;;42.45;6.55;;;11.30;99.90;;;;;;5015623;28;20133;-73
2023/11/19 07:46:23;;;;;;;39.75;6.38;;;11.40;99.90;;;;;;5000037;28;20054;-73
2023/11/19 07:48:48;;;;;;;32.83;5.60;;;11.40;99.90;;;;;;4985061;28;20125;-73
2023/11/19 07:51:15;;;;;;;51.25;7.90;;;11.40;99.90;;;;;;4980023;28;20073;-73
2023/11/19 07:53:41;;;;;;;46.83;6.53;;;11.40;99.90;;;;;;5001479;28;20045;-73
2023/11/19 07:56:08;;;;;;;41.92;6.97;;;11.40;99.90;;;;;;4996042;28;20402;-73
2023/11/19 07:58:33;;;;;;;36.20;6.10;;;11.40;99.90;;;;;;4993700;28;20068;-73
2023/11/19 08:01:01;;;;;;;39.38;7.32;;;11.40;99.90;;;;;;4997775;28;20046;-73
2023/11/19 08:03:27;;;;;;;39.83;7.25;;;11.40;99.90;;;;;;5015298;28;20042;-73
2023/11/19 08:05:56;;;;;;;32.55;5.93;;;11.40;99.90;;;;;;5009919;28;20403;-72
2023/11/19 08:08:29;;;;;;;38.40;6.20;;;11.40;99.90;;;;;;5015574;28;20387;-72
2023/11/19 08:10:56;;;;;;;40.25;6.65;;;11.40;99.90;;;;;;5014236;28;20037;-73
2023/11/19 08:13:23;;;;;;;39.58;6.93;;;11.50;99.90;;;;;;5013718;28;20042;-73
2023/11/19 08:15:49;;;;;;;42.42;7.45;;;11.40;99.90;;;;;;5014939;28;20068;-73
2023/11/19 08:18:14;;;;;;;40.22;6.70;;;11.40;99.90;;;;;;4996265;28;20483;-73
2023/11/19 08:20:41;;;;;;;42.80;6.45;;;11.40;99.90;;;;;;4995154;28;20038;-73
2023/11/19 08:23:07;;;;;;;48.35;6.93;;;11.40;99.90;;;;;;4995489;28;20067;-73
2023/11/19 08:25:33;;;;;;;49.13;7.63;;;11.40;99.90;;;;;;5017928;28;20041;-72
2023/11/19 08:28:00;;;;;;;45.70;7.22;;;11.40;99.90;;;;;;4994986;28;20046;-72
2023/11/19 08:30:25;;;;;;;37.72;7.15;;;11.40;99.90;;;;;;4997496;28;20034;-72
2023/11/19 08:32:51;;;;;;;36.03;5.93;;;11.30;99.90;;;;;;4995546;28;20100;-72
2023/11/19 08:35:16;;;;;;;39.45;6.75;;;11.20;99.90;;;;;;5011948;28;20034;-72
2023/11/19 08:37:45;;;;;;;41.05;6.35;;;11.20;99.90;;;;;;5013155;28;20038;-73
2023/11/19 08:40:12;;;;;;;49.03;7.18;;;11.20;99.90;;;;;;4993943;28;20498;-72
2023/11/19 08:42:39;;;;;;;38.13;6.28;;;11.20;99.90;;;;;;5011128;28;20060;-72
2023/11/19 08:45:10;;;;;;;40.58;6.10;;;11.20;99.90;;;;;;4997389;28;20056;-73
2023/11/19 08:47:36;;;;;;;33.08;6.28;;;11.20;99.90;;;;;;4995808;28;20077;-73
2023/11/19 08:50:01;;;;;;;39.42;6.97;;;11.20;99.90;;;;;;5017922;28;20120;-72
2023/11/19 08:52:27;;;;;;;41.75;6.57;;;11.20;99.90;;;;;;4997350;28;20497;-73
2023/11/19 08:54:52;;;;;;;36.60;6.32;;;11.30;99.90;;;;;;5016716;28;20715;-72
2023/11/19 08:57:18;;;;;;;40.78;6.15;;;11.30;99.90;;;;;;5019858;28;20056;-72
2023/11/19 08:59:45;;;;;;;40.55;5.95;;;11.30;99.90;;;;;;4993967;28;20045;-72
2023/11/19 09:02:11;;;;;;;40.38;6.72;;;11.50;99.90;;;;;;5014682;28;20034;-72
2023/11/19 09:04:36;;;;;;;41.40;6.07;;;11.30;99.90;;;;;;4996148;28;20040;-73
2023/11/19 09:07:03;;;;;;;39.50;6.45;;;11.30;99.90;;;;;;4978235;28;20045;-73
2023/11/19 09:09:29;;;;;;;42.08;6.32;;;11.30;99.90;;;;;;4994712;28;20056;-73
2023/11/19 09:11:55;;;;;;;43.65;6.53;;;11.30;99.90;;;;;;4978369;28;20037;-73
2023/11/19 09:14:25;;;;;;;44.33;7.10;;;11.40;99.90;;;;;;4981018;28;20038;-73
2023/11/19 09:16:55;;;;;;;42.00;6.82;;;11.40;99.90;;;;;;5009624;28;20052;-72
2023/11/19 09:19:21;;;;;;;42.83;7.55;;;11.50;99.90;;;;;;4989276;28;20045;-73
2023/11/19 09:21:48;;;;;;;44.97;7.13;;;11.50;99.90;;;;;;5011580;28;20029;-73
2023/11/19 09:24:15;;;;;;;39.05;6.07;;;11.50;99.90;;;;;;4992700;28;20431;-73
2023/11/19 09:26:41;;;;;;;41.22;7.57;;;11.50;99.90;;;;;;4993564;28;20515;-73
2023/11/19 09:29:10;;;;;;;43.42;7.10;;;11.60;99.90;;;;;;4997699;28;20060;-73
2023/11/19 09:31:38;;;;;;;41.10;7.13;;;11.60;99.90;;;;;;4997256;28;20491;-73
2023/11/19 09:34:03;;;;;;;45.72;6.20;;;11.60;99.90;;;;;;4993723;28;20060;-73
2023/11/19 09:36:29;;;;;;;41.30;6.70;;;12.10;99.90;;;;;;5011200;28;20029;-74
2023/11/19 09:38:54;;;;;;;41.25;7.05;;;11.70;99.90;;;;;;4995777;28;20033;-72
2023/11/19 09:41:23;;;;;;;38.80;6.63;;;11.70;99.90;;;;;;4993402;28;20037;-73
2023/11/19 09:43:50;;;;;;;43.00;7.43;;;11.70;99.90;;;;;;5011630;28;20038;-73
2023/11/19 09:46:20;;;;;;;39.35;6.88;;;11.70;99.90;;;;;;4994160;28;20048;-73
2023/11/19 09:48:48;;;;;;;44.45;6.18;;;11.70;99.90;;;;;;5013763;28;20043;-73
2023/11/19 09:51:14;;;;;;;43.90;6.78;;;11.70;99.90;;;;;;4987848;28;20046;-73
2023/11/19 09:53:39;;;;;;;42.53;6.63;;;11.70;99.90;;;;;;4986227;28;20043;-72
2023/11/19 09:56:07;;;;;;;50.20;7.40;;;11.70;99.90;;;;;;4994754;28;20038;-72
2023/11/19 09:58:33;;;;;;;39.92;6.97;;;11.70;99.90;;;;;;4988040;28;20066;-73
2023/11/19 10:01:10;;;;;;;43.40;7.40;;;11.70;99.90;;;;;;4990312;28;20045;-73
2023/11/19 10:03:39;;;;;;;43.05;6.60;;;11.70;99.90;;;;;;4997656;28;20049;-73
2023/11/19 10:06:08;;;;;;;35.30;6.95;;;11.70;99.90;;;;;;5003871;28;20402;-73
2023/11/19 10:08:34;;;;;;;42.67;6.90;;;11.60;99.90;;;;;;4993818;28;20057;-73
2023/11/19 10:10:59;;;;;;;37.83;6.25;;;11.70;99.90;;;;;;4996186;28;20046;-72
2023/11/19 10:13:29;;;;;;;45.42;7.10;;;11.70;99.90;;;;;;4993627;28;20380;-72
2023/11/19 10:15:55;;;;;;;43.55;7.43;;;11.70;99.90;;;;;;4976990;28;20030;-72
2023/11/19 10:18:30;;;;;;;47.20;6.60;;;11.70;99.90;;;;;;5010019;28;20038;-73
2023/11/19 10:20:55;;;;;;;37.67;6.10;;;11.70;99.90;;;;;;5010657;28;20030;-73
2023/11/19 10:23:22;;;;;;;38.97;5.65;;;11.60;99.90;;;;;;4996037;28;20040;-73
2023/11/19 10:25:48;;;;;;;40.30;6.50;;;11.70;99.90;;;;;;5014069;28;20113;-73
2023/11/19 10:28:16;;;;;;;36.13;6.38;;;11.70;99.90;;;;;;5013788;28;20510;-73
2023/11/19 10:30:43;;;;;;;43.95;7.05;;;11.70;99.90;;;;;;4971540;28;20038;-73
2023/11/19 10:33:10;;;;;;;38.95;6.45;;;11.60;99.90;;;;;;5004974;28;20104;-73
2023/11/19 10:35:57;;;;;;;40.45;7.07;;;11.80;99.90;;;;;;4987877;28;20042;-73
2023/11/19 10:38:23;;;;;;;42.67;6.88;;;11.80;99.90;;;;;;4992573;28;20046;-73
2023/11/19 10:40:50;;;;;;;40.38;7.05;;;11.80;99.90;;;;;;5008094;28;20041;-73
2023/11/19 10:43:17;;;;;;;43.60;6.90;;;11.90;99.90;;;;;;5010373;28;20046;-74
2023/11/19 10:45:44;;;;;;;41.35;7.15;;;11.80;99.90;;;;;;4996845;28;20490;-72
2023/11/19 10:48:10;;;;;;;46.75;6.78;;;11.90;99.90;;;;;;4995760;28;20046;-72
2023/11/19 10:50:42;;;;;;;44.58;7.38;;;11.90;99.90;;;;;;5015114;28;20044;-73
2023/11/19 10:53:18;;;;;;;36.15;6.70;;;11.90;99.90;;;;;;5004328;28;20419;-73
2023/11/19 10:55:47;;;;;;;42.00;7.07;;;12.00;99.90;;;;;;5013730;28;20168;-73
2023/11/19 10:58:18;;;;;;;41.15;6.85;;;12.00;99.90;;;;;;4998550;28;20128;-73
2023/11/19 11:00:47;;;;;;;35.40;7.03;;;12.00;99.90;;;;;;4981090;28;20042;-73
2023/11/19 11:03:19;;;;;;;45.85;7.25;;;12.00;99.90;;;;;;4996759;28;20057;-72
2023/11/19 11:05:52;;;;;;;43.45;6.85;;;12.10;99.90;;;;;;4997886;28;20045;-73
2023/11/19 11:08:24;;;;;;;41.63;7.00;;;12.00;99.90;;;;;;4993993;28;20042;-72
2023/11/19 11:10:55;;;;;;;36.60;6.63;;;12.10;99.90;;;;;;4998923;28;20046;-72
2023/11/19 11:13:22;;;;;;;44.17;7.60;;;12.00;99.90;;;;;;4997401;28;20145;-73
2023/11/19 11:15:50;;;;;;;47.83;6.68;;;12.00;99.90;;;;;;4980960;28;20045;-73
2023/11/19 11:18:18;;;;;;;37.30;6.68;;;12.00;99.90;;;;;;5009285;28;20101;-73
2023/11/19 11:20:45;;;;;;;48.97;7.40;;;11.90;99.90;;;;;;5010293;28;20045;-72
2023/11/19 11:23:32;;;;;;;45.83;8.25;;;11.90;99.90;;;;;;4978435;28;20506;-72
2023/11/19 11:26:05;;;;;;;38.55;6.78;;;11.90;99.90;;;;;;4996186;28;20038;-72
2023/11/19 11:28:49;;;;;;;51.25;7.35;;;11.80;99.90;;;;;;5012613;28;20037;-72
2023/11/19 11:31:30;;;;;;;45.90;6.93;;;11.80;99.90;;;;;;4998082;28;20046;-72
2023/11/19 11:34:31;;;;;;;41.42;6.80;;;11.80;99.90;;;;;;5001472;28;20447;-73
2023/11/19 11:37:08;;;;;;;42.92;6.63;;;11.70;99.90;;;;;;4981561;28;20038;-72
2023/11/19 11:39:34;;;;;;;49.17;6.80;;;11.70;99.90;;;;;;4981199;28;20038;-72
2023/11/19 11:42:31;;;;;;;39.45;6.28;;;11.70;99.90;;;;;;4996264;28;20064;-73
2023/11/19 11:45:10;;;;;;;40.35;6.65;;;11.60;99.90;;;;;;4994195;28;20066;-72
2023/11/19 11:47:45;;;;;;;44.92;6.55;;;11.60;99.90;;;;;;5014359;28;20095;-71
2023/11/19 11:50:18;;;;;;;49.67;7.32;;;11.60;99.90;;;;;;4981231;28;20038;-72
2023/11/19 11:53:00;;;;;;;36.35;5.55;;;11.50;99.90;;;;;;4996763;28;20046;-71
2023/11/19 11:55:52;;;;;;;36.65;6.43;;;11.50;99.90;;;;;;4984167;28;20052;-71
2023/11/19 11:58:21;;;;;;;39.08;6.60;;;11.60;99.90;;;;;;5014479;28;20037;-72
2023/11/19 12:00:51;;;;;;;47.00;6.93;;;11.60;99.90;;;;;;4998990;28;20033;-73
2023/11/19 12:03:23;;;;;;;47.80;6.80;;;11.60;99.90;;;;;;5010851;28;20483;-74
2023/11/19 12:05:55;;;;;;;46.00;7.50;;;11.70;99.90;;;;;;5016790;28;20037;-72
2023/11/19 12:08:25;;;;;;;34.03;6.22;;;11.70;99.90;;;;;;4991116;28;20040;-72
2023/11/19 12:10:53;;;;;;;38.78;7.15;;;11.80;99.90;;;;;;5008758;28;20060;-72
2023/11/19 12:13:22;;;;;;;39.45;6.38;;;11.90;99.90;;;;;;4975490;28;20599;-72
2023/11/19 12:15:56;;;;;;;42.92;6.65;;;12.00;99.90;;;;;;5003812;28;20510;-72
2023/11/19 12:18:27;;;;;;;38.80;6.93;;;12.10;99.90;;;;;;5015587;28;20034;-72
2023/11/19 12:21:00;;;;;;;44.38;6.53;;;12.20;99.90;;;;;;5012150;28;20081;-72
2023/11/19 12:23:26;;;;;;;43.78;6.97;;;12.30;99.90;;;;;;4980936;28;20042;-71
2023/11/19 12:25:52;;;;;;;37.10;6.45;;;12.40;99.90;;;;;;5002451;28;20064;-72
2023/11/19 12:28:18;;;;;;;37.30;5.97;;;12.40;99.90;;;;;;4987822;28;20046;-71
2023/11/19 12:30:45;;;;;;;32.50;5.05;;;12.40;99.90;;;;;;4985371;28;20108;-71
2023/11/19 12:33:12;;;;;;;31.38;5.05;;;12.40;99.90;;;;;;4988764;28;20045;-71
2023/11/19 12:35:42;;;;;;;36.83;6.35;;;12.40;99.90;;;;;;5006347;28;20084;-71
2023/11/19 12:38:07;;;;;;;37.72;5.75;;;12.30;99.90;;;;;;5008507;28;20091;-72
2023/11/19 12:40:35;;;;;;;33.90;5.63;;;12.30;99.90;;;;;;5010719;28;20555;-72